Solen, North Dakota
Current Conditions -  °F | °C
As of 11:52 AM on Friday 28 Nov 2014 (Local Time) from KBIS Reporting Station
Few Clouds Few Clouds  
Wind Chill:   Ceiling: Unl
Heat Index: 20°   Visibility: 10mi
Dew Point: 13°   Wind: 12mph
Humidity: 74%   Direction: 110°ESE
Pressure: 29.7"   Gusts: NA
Location:  46.39°N, 100.8°W
Report Text: KBIS 281852Z 11010KT 10SM FEW085 M07/M11 A2970 RMK AO2 SLP089 T10671106
Loading
Personal Weather Stations






























Interactive Weather Map New forecast layout! Learn more

10-Day Weather Forecast

Advertisements
Track Severe Weather on mobile